createdAt,value
2018-12-16T00:00:31.724Z,97893.59
2018-12-16T00:03:07.781Z,97900.11
2018-12-16T00:05:36.262Z,97903.73
2018-12-16T00:08:11.343Z,97912.67
2018-12-16T00:10:43.176Z,97921.23
2018-12-16T00:13:30.074Z,97920.67
2018-12-16T00:15:59.225Z,97908.70
2018-12-16T00:18:28.189Z,97909.38
2018-12-16T00:20:57.396Z,97906.02
2018-12-16T00:23:25.935Z,97910.36
2018-12-16T00:25:54.454Z,97901.54
2018-12-16T00:28:28.385Z,97904.77
2018-12-16T00:30:56.861Z,97904.47
2018-12-16T00:33:31.846Z,97907.03
2018-12-16T00:36:22.629Z,97895.50
2018-12-16T00:38:56.470Z,97895.72
2018-12-16T00:41:29.354Z,97904.09
2018-12-16T00:43:57.880Z,97903.15
2018-12-16T00:46:39.860Z,97905.08
2018-12-16T00:49:09.070Z,97908.85
2018-12-16T00:51:37.875Z,97909.88
2018-12-16T00:54:26.496Z,97915.67
2018-12-16T00:56:55.756Z,97920.72
2018-12-16T00:59:25.503Z,97922.91
2018-12-16T01:01:54.327Z,97925.84
2018-12-16T01:04:28.232Z,97921.17
2018-12-16T01:07:17.902Z,97929.31
2018-12-16T01:09:47.195Z,97919.89
2018-12-16T01:12:17.113Z,97916.99
2018-12-16T01:15:03.276Z,97919.47
2018-12-16T01:17:33.437Z,97924.03
2018-12-16T01:20:07.379Z,97921.44
2018-12-16T01:22:52.960Z,97919.14
2018-12-16T01:25:27.784Z,97918.77
2018-12-16T01:27:56.446Z,97918.27
2018-12-16T01:30:25.686Z,97913.52
2018-12-16T01:32:56.108Z,97915.02
2018-12-16T01:35:25.006Z,97901.61
2018-12-16T01:37:53.437Z,97904.43
2018-12-16T01:40:22.318Z,97896.70
2018-12-16T01:42:51.435Z,97897.83
2018-12-16T01:45:20.510Z,97898.62
2018-12-16T01:47:49.052Z,97897.27
2018-12-16T01:50:40.308Z,97894.09
2018-12-16T01:53:09.057Z,97886.70
2018-12-16T01:55:43.720Z,97894.27
2018-12-16T01:58:12.179Z,97884.86
2018-12-16T02:00:57.498Z,97889.06
2018-12-16T02:03:26.986Z,97884.28
2018-12-16T02:05:55.445Z,97885.02
2018-12-16T02:08:23.856Z,97880.61
2018-12-16T02:10:52.345Z,97853.46
2018-12-16T02:13:22.202Z,97882.47
2018-12-16T02:15:53.348Z,97884.45
2018-12-16T02:18:38.925Z,97868.64
2018-12-16T02:21:08.242Z,97866.34
2018-12-16T02:23:43.056Z,97863.16
2018-12-16T02:29:08.296Z,97866.43
2018-12-16T02:31:42.231Z,97865.64
2018-12-16T02:34:15.010Z,97858.30
2018-12-16T02:36:43.802Z,97852.57
2018-12-16T02:42:07.642Z,97855.45
2018-12-16T02:44:41.793Z,97855.83
2018-12-16T02:47:12.746Z,97856.61
2018-12-16T02:49:45.384Z,97859.13
2018-12-16T02:52:14.069Z,97859.50
2018-12-16T02:54:44.257Z,97628.32
2018-12-16T02:57:18.296Z,97854.42
2018-12-16T03:00:02.856Z,97861.32
2018-12-16T03:02:31.409Z,97857.60
2018-12-16T03:05:07.803Z,97863.17
2018-12-16T03:10:31.558Z,97862.97
2018-12-16T03:13:00.742Z,97862.47
2018-12-16T03:15:30.047Z,97862.05
2018-12-16T03:18:05.310Z,97861.60
2018-12-16T03:20:39.126Z,97858.63
2018-12-16T03:23:13.682Z,97865.23
2018-12-16T03:25:47.472Z,97865.56
2018-12-16T03:28:21.362Z,97863.79
2018-12-16T03:30:55.945Z,97857.69
2018-12-16T03:33:28.717Z,97851.25
2018-12-16T03:36:17.402Z,97851.62
2018-12-16T03:38:51.359Z,97840.73
2018-12-16T03:41:25.424Z,97843.77
2018-12-16T03:43:56.202Z,97837.34
2018-12-16T03:46:30.724Z,97840.77
2018-12-16T03:49:17.467Z,97840.59
2018-12-16T03:51:55.395Z,97836.81
2018-12-16T03:54:30.294Z,97830.83
2018-12-16T03:57:04.329Z,97827.07
2018-12-16T03:59:37.454Z,97819.98
2018-12-16T04:02:23.026Z,97819.48
2018-12-16T04:05:12.850Z,97824.95
2018-12-16T04:07:42.958Z,97826.33
2018-12-16T04:10:16.748Z,97832.50
2018-12-16T04:12:48.621Z,97831.64
2018-12-16T04:15:23.834Z,97834.56
2018-12-16T04:18:00.488Z,97843.37
2018-12-16T04:20:45.738Z,97840.83
2018-12-16T04:23:18.886Z,97843.33
2018-12-16T04:25:47.661Z,97846.25
2018-12-16T04:28:22.423Z,97847.94
2018-12-16T04:30:53.986Z,97846.66
2018-12-16T04:33:26.865Z,97846.30
2018-12-16T04:36:13.523Z,97842.47
2018-12-16T04:38:41.959Z,97840.15
2018-12-16T04:41:10.921Z,97849.50
2018-12-16T04:43:40.005Z,97849.95
2018-12-16T04:46:10.360Z,97849.91
2018-12-16T04:48:44.307Z,97849.00
2018-12-16T04:51:13.464Z,97848.88
2018-12-16T04:56:41.676Z,97848.97
2018-12-16T04:59:29.354Z,97840.36
2018-12-16T05:01:58.684Z,97839.34
2018-12-16T05:04:27.350Z,97835.89
2018-12-16T05:06:55.840Z,97830.33
2018-12-16T05:09:31.646Z,97827.37
2018-12-16T05:12:05.574Z,97827.31
2018-12-16T05:14:34.030Z,97833.70
2018-12-16T05:17:11.880Z,97835.11
2018-12-16T05:19:40.379Z,97834.16
2018-12-16T05:22:08.875Z,97837.08
2018-12-16T05:24:37.359Z,97836.98
2018-12-16T05:27:07.768Z,97827.05
2018-12-16T05:29:38.351Z,97827.09
2018-12-16T05:32:07.810Z,97827.91
2018-12-16T05:34:43.749Z,97823.63
2018-12-16T05:37:13.500Z,97823.91
2018-12-16T05:39:43.236Z,97828.60
2018-12-16T05:42:13.644Z,97825.09
2018-12-16T05:44:42.212Z,97822.89
2018-12-16T05:47:16.448Z,97821.21
2018-12-16T05:49:45.388Z,97809.36
2018-12-16T05:52:13.852Z,97811.91
2018-12-16T05:55:02.085Z,97808.67
2018-12-16T06:00:25.617Z,97811.69
2018-12-16T06:02:54.855Z,97815.39
2018-12-16T06:05:23.688Z,97807.68
2018-12-16T06:07:56.717Z,97805.77
2018-12-16T06:10:32.232Z,97805.39
2018-12-16T06:13:03.594Z,97800.16
2018-12-16T06:15:34.631Z,97803.94
2018-12-16T06:18:10.352Z,97808.41
2018-12-16T06:20:42.053Z,97808.41
2018-12-16T06:23:11.209Z,97807.30
2018-12-16T06:25:40.865Z,97802.83
2018-12-16T06:28:14.705Z,97808.30
2018-12-16T06:30:47.028Z,97800.69
2018-12-16T06:33:15.772Z,97800.96
2018-12-16T06:35:44.867Z,97797.91
2018-12-16T06:38:13.469Z,97800.67
2018-12-16T06:40:41.977Z,97798.75
2018-12-16T06:43:10.468Z,97798.84
2018-12-16T06:45:38.963Z,97806.59
2018-12-16T06:48:10.239Z,97816.70
2018-12-16T06:50:57.947Z,97802.17
2018-12-16T06:53:31.922Z,97769.34
2018-12-16T06:56:06.632Z,97800.17
2018-12-16T06:58:38.191Z,97800.69
2018-12-16T07:01:27.263Z,97802.06
2018-12-16T07:03:57.367Z,97810.55
2018-12-16T07:06:29.998Z,97804.83
2018-12-16T07:09:06.019Z,97808.96
2018-12-16T07:11:37.923Z,97806.69
2018-12-16T07:14:08.788Z,97813.06
2018-12-16T07:16:40.797Z,97816.73
2018-12-16T07:19:14.671Z,97821.72
2018-12-16T07:21:45.587Z,97825.33
2018-12-16T07:24:15.434Z,97832.07
2018-12-16T07:26:54.210Z,97834.01
2018-12-16T07:29:28.028Z,97836.69
2018-12-16T07:31:56.888Z,97822.91
2018-12-16T07:34:25.607Z,97820.73
2018-12-16T07:39:51.580Z,97826.95
2018-12-16T07:42:20.245Z,97830.99
2018-12-16T07:44:49.102Z,97822.81
2018-12-16T07:47:18.588Z,97827.88
2018-12-16T07:49:48.729Z,97827.70
2018-12-16T07:52:37.786Z,97818.00
2018-12-16T07:55:06.358Z,97817.45
2018-12-16T07:57:52.056Z,97817.41
2018-12-16T08:00:20.607Z,97808.45
2018-12-16T08:02:51.052Z,97803.16
2018-12-16T08:05:19.548Z,97803.62
2018-12-16T08:07:48.800Z,97804.20
2018-12-16T08:10:17.289Z,97812.03
2018-12-16T08:12:45.798Z,97809.25
2018-12-16T08:15:14.663Z,97805.22
2018-12-16T08:17:43.380Z,97799.30
2018-12-16T08:20:17.233Z,97802.73
2018-12-16T08:22:50.134Z,97797.94
2018-12-16T08:25:37.023Z,97805.68
2018-12-16T08:28:27.627Z,97823.80
2018-12-16T08:30:57.710Z,97812.86
2018-12-16T08:33:26.467Z,97813.31
2018-12-16T08:35:56.003Z,97812.04
2018-12-16T08:38:24.790Z,97812.87
2018-12-16T08:40:53.269Z,97812.87
2018-12-16T08:43:21.756Z,97812.33
2018-12-16T08:45:50.279Z,97796.55
2018-12-16T08:48:18.717Z,97800.58
2018-12-16T08:50:47.416Z,97802.73
2018-12-16T08:53:15.927Z,97796.73
2018-12-16T08:55:44.404Z,97804.63
2018-12-16T08:58:12.856Z,97785.02
2018-12-16T09:00:41.340Z,97797.55
2018-12-16T09:03:10.664Z,97794.16
2018-12-16T09:05:39.265Z,97791.73
2018-12-16T09:08:07.748Z,97792.23
2018-12-16T09:10:36.212Z,97794.52
2018-12-16T09:13:04.732Z,97785.45
2018-12-16T09:15:33.223Z,97788.79
2018-12-16T09:18:01.920Z,97797.83
2018-12-16T09:20:30.623Z,97801.55
2018-12-16T09:22:59.120Z,97808.29
2018-12-16T09:25:27.598Z,97798.99
2018-12-16T09:27:56.414Z,97794.17
2018-12-16T09:30:24.912Z,97782.95
2018-12-16T09:32:53.348Z,97777.97
2018-12-16T09:35:21.826Z,97775.94
2018-12-16T09:37:50.323Z,97770.53
2018-12-16T09:40:18.802Z,97760.80
2018-12-16T09:42:47.284Z,97760.45
2018-12-16T09:45:15.808Z,97761.69
2018-12-16T09:47:44.268Z,97753.39
2018-12-16T09:50:12.736Z,97752.97
2018-12-16T09:52:41.234Z,97752.53
2018-12-16T09:55:09.713Z,97748.70
2018-12-16T09:57:38.157Z,97739.87
2018-12-16T10:00:08.769Z,97733.02
2018-12-16T10:02:37.236Z,97724.52
2018-12-16T10:05:06.438Z,97730.20
2018-12-16T10:07:35.017Z,97738.56
2018-12-16T10:10:07.017Z,97751.42
2018-12-16T10:12:35.527Z,97746.77
2018-12-16T10:15:05.219Z,97744.75
2018-12-16T10:17:33.703Z,97738.34
2018-12-16T10:20:02.195Z,97737.48
2018-12-16T10:22:30.631Z,97743.56
2018-12-16T10:24:59.096Z,97745.62
2018-12-16T10:27:27.592Z,97750.95
2018-12-16T10:29:56.029Z,97745.66
2018-12-16T10:32:24.468Z,97743.41
2018-12-16T10:34:52.941Z,97746.63
2018-12-16T10:37:21.422Z,97748.23
2018-12-16T10:39:50.428Z,97730.44
2018-12-16T10:42:18.942Z,97709.77
2018-12-16T10:44:47.885Z,97697.00
2018-12-16T10:47:16.343Z,97684.17
2018-12-16T10:49:44.821Z,97693.04
2018-12-16T10:52:13.305Z,97711.47
2018-12-16T10:54:42.232Z,97705.14
2018-12-16T10:57:10.723Z,97714.13
2018-12-16T10:59:39.172Z,97714.73
2018-12-16T11:02:07.621Z,97715.80
2018-12-16T11:04:37.155Z,97715.13
2018-12-16T11:07:05.620Z,97699.36
2018-12-16T11:09:34.056Z,97691.44
2018-12-16T11:12:02.577Z,97691.89
2018-12-16T11:14:31.037Z,97696.62
2018-12-16T11:16:59.466Z,97697.44
2018-12-16T11:19:27.944Z,97691.80
2018-12-16T11:21:56.370Z,97690.77
2018-12-16T11:24:24.853Z,97685.18
2018-12-16T11:26:53.347Z,97683.00
2018-12-16T11:29:21.820Z,97674.85
2018-12-16T11:31:50.316Z,97659.42
2018-12-16T11:34:18.854Z,97662.44
2018-12-16T11:36:47.295Z,97671.17
2018-12-16T11:39:15.776Z,97669.73
2018-12-16T11:41:44.255Z,97657.48
2018-12-16T11:44:12.690Z,97656.19
2018-12-16T11:46:42.144Z,97640.78
2018-12-16T11:49:10.597Z,97652.03
2018-12-16T11:51:39.519Z,97652.94
2018-12-16T11:54:08.008Z,97667.58
2018-12-16T11:56:36.478Z,97665.60
2018-12-16T11:59:04.887Z,97643.20
2018-12-16T12:01:33.340Z,97663.46
2018-12-16T12:04:03.884Z,97681.08
2018-12-16T12:06:32.356Z,97679.22
2018-12-16T12:09:00.816Z,97665.97
2018-12-16T12:11:29.386Z,97659.89
2018-12-16T12:13:57.959Z,97654.35
2018-12-16T12:16:26.420Z,97657.74
2018-12-16T12:19:00.053Z,97655.92
2018-12-16T12:21:28.541Z,97659.01
2018-12-16T12:23:57.032Z,97662.88
2018-12-16T12:26:25.606Z,97656.08
2018-12-16T12:28:54.095Z,97660.31
2018-12-16T12:31:22.576Z,97665.90
2018-12-16T12:33:51.212Z,97665.53
2018-12-16T12:36:19.692Z,97661.18
2018-12-16T12:38:48.180Z,97677.98
2018-12-16T12:41:16.732Z,97677.47
2018-12-16T12:43:45.256Z,97667.44
2018-12-16T12:46:13.724Z,97669.50
2018-12-16T12:48:42.283Z,97663.14
2018-12-16T12:51:10.772Z,97643.88
2018-12-16T12:53:39.311Z,97638.77
2018-12-16T12:56:07.889Z,97641.83
2018-12-16T12:58:36.320Z,97642.72
2018-12-16T13:01:04.838Z,97646.56
2018-12-16T13:03:33.455Z,97635.29
2018-12-16T13:06:01.993Z,97640.58
2018-12-16T13:08:30.518Z,97627.77
2018-12-16T13:10:59.077Z,97625.67
2018-12-16T13:13:27.555Z,97639.79
2018-12-16T13:15:56.814Z,97638.98
2018-12-16T13:18:25.355Z,97647.64
2018-12-16T13:20:53.882Z,97657.81
2018-12-16T13:23:22.420Z,97665.11
2018-12-16T13:26:01.660Z,97669.59
2018-12-16T13:28:30.238Z,97668.22
2018-12-16T13:30:58.744Z,97658.75
2018-12-16T13:33:27.297Z,97653.77
2018-12-16T13:35:55.833Z,97648.16
2018-12-16T13:38:24.363Z,97640.43
2018-12-16T13:40:53.152Z,97638.66
2018-12-16T13:43:21.716Z,97645.17
2018-12-16T13:45:50.259Z,97647.30
2018-12-16T13:48:18.890Z,97658.41
2018-12-16T13:50:47.371Z,97654.97
2018-12-16T13:53:16.196Z,97665.77
2018-12-16T13:55:45.408Z,97671.84
2018-12-16T13:58:13.949Z,97666.19
2018-12-16T14:00:42.507Z,97657.94
2018-12-16T14:03:11.039Z,97665.67
2018-12-16T14:05:46.447Z,97680.61
2018-12-16T14:08:10.121Z,97685.64
2018-12-16T14:10:38.742Z,97697.19
2018-12-16T14:13:07.482Z,97697.65
2018-12-16T14:15:36.084Z,97701.83
2018-12-16T14:18:04.704Z,97686.32
2018-12-16T14:20:33.210Z,97680.28
2018-12-16T14:23:01.760Z,97677.27
2018-12-16T14:25:30.441Z,97676.41
2018-12-16T14:27:58.956Z,97677.59
2018-12-16T14:30:27.786Z,97673.19
2018-12-16T14:32:56.612Z,97673.58
2018-12-16T14:35:25.397Z,97681.27
2018-12-16T14:37:54.247Z,97682.08
2018-12-16T14:40:22.810Z,97684.07
2018-12-16T14:42:51.613Z,97688.83
2018-12-16T14:45:20.144Z,97689.19
2018-12-16T14:47:49.059Z,97675.36
2018-12-16T14:50:17.614Z,97674.48
2018-12-16T14:52:46.177Z,97683.37
2018-12-16T14:55:14.940Z,97690.64
2018-12-16T14:57:43.758Z,97707.72
2018-12-16T15:00:12.462Z,97709.36
2018-12-16T15:02:41.030Z,97702.34
2018-12-16T15:05:09.628Z,97696.72
2018-12-16T15:07:38.426Z,97706.90
2018-12-16T15:10:07.722Z,97694.03
2018-12-16T15:12:36.348Z,97692.22
2018-12-16T15:15:05.591Z,97686.08
2018-12-16T15:17:34.275Z,97685.11
2018-12-16T15:20:03.257Z,97679.81
2018-12-16T15:22:31.749Z,97683.95
2018-12-16T15:25:00.336Z,97684.72
2018-12-16T15:27:29.202Z,97678.22
2018-12-16T15:29:58.005Z,97686.76
2018-12-16T15:32:26.590Z,97684.98
2018-12-16T15:34:55.214Z,97685.79
2018-12-16T15:37:23.847Z,97682.75
2018-12-16T15:39:52.727Z,97678.02
2018-12-16T15:42:21.419Z,97673.22
2018-12-16T15:44:51.548Z,97674.45
2018-12-16T15:47:20.218Z,97688.88
2018-12-16T15:49:49.280Z,97680.19
2018-12-16T15:52:23.159Z,97687.75
2018-12-16T15:54:57.761Z,97692.37
2018-12-16T15:57:31.820Z,97697.04
2018-12-16T16:00:00.956Z,97697.00
2018-12-16T16:02:29.615Z,97691.87
2018-12-16T16:04:59.159Z,97692.02
2018-12-16T16:07:27.757Z,97692.72
2018-12-16T16:09:56.547Z,97705.50
2018-12-16T16:12:25.136Z,97699.95
2018-12-16T16:14:53.733Z,97698.28
2018-12-16T16:17:22.199Z,97703.98
2018-12-16T16:19:50.834Z,97706.24
2018-12-16T16:22:19.405Z,97708.50
2018-12-16T16:24:47.968Z,97693.97
2018-12-16T16:27:16.588Z,97706.60
2018-12-16T16:29:45.055Z,97701.11
2018-12-16T16:32:13.673Z,97705.03
2018-12-16T16:34:43.358Z,97701.16
2018-12-16T16:37:11.930Z,97685.93
2018-12-16T16:39:40.561Z,97688.91
2018-12-16T16:42:09.231Z,97685.94
2018-12-16T16:44:37.768Z,97681.00
2018-12-16T16:47:06.460Z,97688.61
2018-12-16T16:49:35.709Z,97680.44
2018-12-16T16:52:19.336Z,97676.19
2018-12-16T16:54:49.945Z,97694.31
2018-12-16T16:57:24.731Z,97697.03
2018-12-16T16:59:59.453Z,97700.61
2018-12-16T17:02:29.941Z,97707.28
2018-12-16T17:04:59.242Z,97712.72
2018-12-16T17:07:28.229Z,97700.58
2018-12-16T17:09:56.867Z,97708.05
2018-12-16T17:12:25.457Z,97703.55
2018-12-16T17:14:54.828Z,97713.27
2018-12-16T17:20:20.037Z,97710.44
2018-12-16T17:22:54.284Z,97702.74
2018-12-16T17:25:34.084Z,97705.13
2018-12-16T17:28:03.743Z,97707.66
2018-12-16T17:30:32.400Z,97713.53
2018-12-16T17:33:04.413Z,97713.50
2018-12-16T17:38:28.235Z,97716.33
2018-12-16T17:40:57.676Z,97720.97
2018-12-16T17:43:26.585Z,97717.00
2018-12-16T17:46:00.920Z,97702.80
2018-12-16T17:48:29.694Z,97698.06
2018-12-16T17:51:04.725Z,97691.23
2018-12-16T17:53:33.346Z,97694.89
2018-12-16T17:56:03.926Z,97696.75
2018-12-16T17:58:32.758Z,97704.21
2018-12-16T18:01:06.918Z,97707.77
2018-12-16T18:03:52.539Z,97704.02
2018-12-16T18:06:21.229Z,97711.39
2018-12-16T18:08:52.072Z,97712.26
2018-12-16T18:11:24.128Z,97715.78
2018-12-16T18:13:52.784Z,97721.80
2018-12-16T18:16:42.621Z,97717.38
2018-12-16T18:19:29.498Z,97716.83
2018-12-16T18:22:05.888Z,97721.03
2018-12-16T18:24:35.666Z,97725.22
2018-12-16T18:27:05.099Z,97734.61
2018-12-16T18:29:52.147Z,97739.31
2018-12-16T18:32:20.834Z,97743.64
2018-12-16T18:34:50.678Z,97751.33
2018-12-16T18:37:19.740Z,97751.27
2018-12-16T18:39:54.391Z,97759.75
2018-12-16T18:42:27.405Z,97762.59
2018-12-16T18:44:56.073Z,97772.31
2018-12-16T18:47:24.648Z,97768.82
2018-12-16T18:49:54.339Z,97781.91
2018-12-16T18:52:42.158Z,97770.41
2018-12-16T18:55:10.828Z,97766.48
2018-12-16T18:57:39.800Z,97763.55
2018-12-16T19:00:12.552Z,97726.11
2018-12-16T19:02:46.747Z,97758.16
2018-12-16T19:05:22.420Z,97762.17
2018-12-16T19:07:51.828Z,97765.77
2018-12-16T19:10:20.484Z,97768.53
2018-12-16T19:12:56.221Z,97769.78
2018-12-16T19:18:24.927Z,97762.64
2018-12-16T19:20:59.517Z,97757.41
2018-12-16T19:23:28.182Z,97757.48
2018-12-16T19:28:52.612Z,97747.41
2018-12-16T19:31:25.818Z,97754.33
2018-12-16T19:34:13.508Z,97764.45
2018-12-16T19:36:47.403Z,97773.36
2018-12-16T19:39:20.872Z,97774.58
2018-12-16T19:44:43.845Z,97767.27
2018-12-16T19:47:13.020Z,97776.94
2018-12-16T19:49:41.787Z,97775.63
2018-12-16T19:52:10.419Z,97770.12
2018-12-16T19:54:45.122Z,97780.41
2018-12-16T19:57:17.122Z,97771.50
2018-12-16T19:59:57.544Z,97763.43
2018-12-16T20:02:26.172Z,97764.27
2018-12-16T20:05:20.756Z,97773.31
2018-12-16T20:08:09.937Z,97765.17
2018-12-16T20:10:42.816Z,97769.02
2018-12-16T20:13:14.867Z,97772.34
2018-12-16T20:16:04.387Z,97792.50
2018-12-16T20:18:50.419Z,97791.98
2018-12-16T20:21:22.907Z,97711.61
2018-12-16T20:23:51.510Z,97791.42
2018-12-16T20:26:33.287Z,97785.43
2018-12-16T20:29:07.121Z,97796.41
2018-12-16T20:31:38.109Z,97806.21
2018-12-16T20:34:15.055Z,97810.89
2018-12-16T20:36:48.283Z,97802.38
2018-12-16T20:39:27.320Z,97796.03
2018-12-16T20:41:57.242Z,97779.34
2018-12-16T20:44:40.058Z,97778.47
2018-12-16T20:47:13.892Z,97786.61
2018-12-16T20:49:44.881Z,97775.22
2018-12-16T20:52:18.952Z,97786.34
2018-12-16T20:55:02.775Z,97795.78
2018-12-16T21:00:27.076Z,97821.31
2018-12-16T21:03:01.967Z,97823.08
2018-12-16T21:05:34.053Z,97819.30
2018-12-16T21:08:03.944Z,97814.73
2018-12-16T21:10:54.980Z,97819.41
2018-12-16T21:13:35.343Z,97816.02
2018-12-16T21:16:12.228Z,97808.67
2018-12-16T21:18:42.744Z,97811.23
2018-12-16T21:21:14.710Z,97815.63
2018-12-16T21:23:44.745Z,97804.20
2018-12-16T21:26:21.589Z,97813.97
2018-12-16T21:28:50.176Z,97814.80
2018-12-16T21:31:19.428Z,97817.81
2018-12-16T21:33:53.364Z,97813.17
2018-12-16T21:39:15.907Z,97817.50
2018-12-16T21:42:06.848Z,97819.20
2018-12-16T21:44:35.398Z,97812.27
2018-12-16T21:47:23.589Z,97808.36
2018-12-16T21:49:53.237Z,97811.75
2018-12-16T21:52:27.080Z,97815.91
2018-12-16T21:54:55.818Z,97818.02
2018-12-16T21:57:33.059Z,97810.34
2018-12-16T22:00:00.655Z,97822.39
2018-12-16T22:02:32.492Z,97828.37
2018-12-16T22:05:01.404Z,97827.58
2018-12-16T22:07:30.206Z,97821.25
2018-12-16T22:09:58.704Z,97820.80
2018-12-16T22:12:29.717Z,97812.59
2018-12-16T22:14:59.670Z,97811.17
2018-12-16T22:17:28.496Z,97808.91
2018-12-16T22:19:56.989Z,97811.38
2018-12-16T22:22:29.746Z,97817.81
2018-12-16T22:24:59.599Z,97814.84
2018-12-16T22:27:40.131Z,97818.30
2018-12-16T22:30:05.156Z,97808.56
2018-12-16T22:35:30.555Z,97811.96
2018-12-16T22:38:05.076Z,97820.45
2018-12-16T22:40:50.428Z,97822.70
2018-12-16T22:43:20.428Z,97823.08
2018-12-16T22:45:54.360Z,97820.97
2018-12-16T22:48:33.365Z,97809.02
2018-12-16T22:51:02.515Z,97811.20
2018-12-16T22:53:31.232Z,97821.45
2018-12-16T22:55:59.659Z,97815.01
2018-12-16T22:58:33.568Z,97823.56
2018-12-16T23:01:07.663Z,97820.03
2018-12-16T23:03:36.780Z,97506.41
2018-12-16T23:06:05.217Z,97826.44
2018-12-16T23:08:34.524Z,97825.57
2018-12-16T23:14:01.902Z,97817.63
2018-12-16T23:19:27.308Z,97824.58
2018-12-16T23:21:56.136Z,97838.59
2018-12-16T23:24:42.141Z,97833.82
2018-12-16T23:27:10.912Z,97827.38
2018-12-16T23:29:39.393Z,97816.27
2018-12-16T23:32:23.750Z,97815.02
2018-12-16T23:34:52.410Z,97818.00
2018-12-16T23:37:20.899Z,97812.46
2018-12-16T23:39:50.527Z,97811.67
2018-12-16T23:42:23.887Z,97813.74
2018-12-16T23:45:08.088Z,97819.35
2018-12-16T23:47:53.441Z,97825.38
2018-12-16T23:50:26.336Z,97831.41
2018-12-16T23:52:54.960Z,97825.52
2018-12-16T23:55:26.396Z,97819.61
